createdAt,value
2022-11-24T00:00:20.407Z,6.26
2022-11-24T00:02:51.825Z,6.22
2022-11-24T00:05:21.514Z,6.32
2022-11-24T00:07:48.211Z,6.32
2022-11-24T00:10:20.259Z,6.35
2022-11-24T00:12:46.951Z,6.32
2022-11-24T00:15:13.690Z,6.34
2022-11-24T00:17:43.053Z,6.33
2022-11-24T00:20:13.407Z,6.22
2022-11-24T00:22:44.753Z,6.10
2022-11-24T00:25:11.418Z,5.65
2022-11-24T00:27:38.095Z,5.87
2022-11-24T00:30:10.182Z,6.09
2022-11-24T00:32:36.979Z,6.20
2022-11-24T00:35:06.857Z,6.12
2022-11-24T00:37:37.966Z,6.19
2022-11-24T00:40:09.860Z,5.94
2022-11-24T00:42:38.725Z,6.16
2022-11-24T00:45:13.436Z,6.29
2022-11-24T00:47:43.388Z,6.25
2022-11-24T00:50:10.523Z,6.21
2022-11-24T00:52:39.703Z,5.84
2022-11-24T00:55:11.698Z,6.05
2022-11-24T00:57:38.540Z,6.12
2022-11-24T01:00:10.987Z,6.13
2022-11-24T01:02:40.781Z,6.29
2022-11-24T01:05:12.607Z,6.22
2022-11-24T01:07:39.344Z,6.08
2022-11-24T01:10:06.697Z,5.88
2022-11-24T01:12:35.263Z,5.72
2022-11-24T01:15:01.983Z,5.70
2022-11-24T01:17:30.804Z,5.65
2022-11-24T01:20:02.253Z,5.77
2022-11-24T01:22:28.857Z,5.77
2022-11-24T01:24:57.680Z,5.74
2022-11-24T01:27:31.628Z,5.50
2022-11-24T01:30:00.491Z,5.61
2022-11-24T01:32:29.801Z,5.55
2022-11-24T01:34:56.323Z,5.42
2022-11-24T01:37:22.968Z,5.45
2022-11-24T01:39:52.099Z,5.56
2022-11-24T01:42:18.788Z,5.52
2022-11-24T01:44:45.374Z,5.61
2022-11-24T01:47:26.403Z,5.46
2022-11-24T01:49:56.765Z,5.49
2022-11-24T01:52:36.169Z,5.42
2022-11-24T01:55:08.639Z,5.36
2022-11-24T01:57:54.184Z,5.46
2022-11-24T02:00:20.844Z,5.39
2022-11-24T02:02:49.831Z,5.66
2022-11-24T02:05:28.863Z,5.67
2022-11-24T02:08:00.776Z,5.68
2022-11-24T02:10:28.369Z,5.47
2022-11-24T02:12:57.746Z,5.29
2022-11-24T02:15:24.704Z,5.17
2022-11-24T02:17:53.588Z,5.16
2022-11-24T02:20:22.592Z,5.21
2022-11-24T02:23:10.983Z,5.31
2022-11-24T02:25:55.869Z,5.47
2022-11-24T02:28:25.789Z,5.43
2022-11-24T02:30:57.403Z,5.64
2022-11-24T02:33:27.322Z,5.50
2022-11-24T02:35:54.239Z,5.51
2022-11-24T02:38:30.028Z,5.55
2022-11-24T02:41:00.342Z,5.58
2022-11-24T02:43:34.046Z,5.37
2022-11-24T02:46:03.022Z,5.46
2022-11-24T02:48:29.635Z,5.37
2022-11-24T02:50:56.259Z,5.35
2022-11-24T02:53:25.214Z,5.38
2022-11-24T02:55:54.341Z,5.43
2022-11-24T02:58:23.471Z,5.59
2022-11-24T03:00:50.981Z,5.74
2022-11-24T03:03:19.959Z,5.54
2022-11-24T03:05:46.838Z,5.20
2022-11-24T03:08:13.436Z,5.03
2022-11-24T03:10:40.114Z,5.23
2022-11-24T03:13:09.303Z,5.27
2022-11-24T03:15:38.504Z,5.19
2022-11-24T03:18:07.568Z,5.26
2022-11-24T03:20:34.433Z,5.31
2022-11-24T03:23:05.960Z,5.17
2022-11-24T03:25:34.974Z,5.35
2022-11-24T03:28:01.735Z,5.27
2022-11-24T03:30:33.018Z,5.17
2022-11-24T03:33:01.907Z,5.11
2022-11-24T03:35:33.287Z,5.17
2022-11-24T03:37:59.759Z,5.32
2022-11-24T03:40:26.271Z,5.42
2022-11-24T03:42:52.777Z,5.54
2022-11-24T03:48:09.682Z,5.25
2022-11-24T03:50:41.556Z,5.20
2022-11-24T03:53:08.375Z,4.94
2022-11-24T03:55:35.745Z,5.02
2022-11-24T03:58:02.453Z,4.95
2022-11-24T04:00:31.700Z,4.87
2022-11-24T04:03:00.558Z,4.78
2022-11-24T04:05:29.823Z,4.54
2022-11-24T04:08:03.713Z,4.47
2022-11-24T04:10:33.394Z,4.58
2022-11-24T04:13:02.353Z,4.53
2022-11-24T04:15:31.579Z,4.63
2022-11-24T04:17:58.110Z,4.43
2022-11-24T04:20:27.854Z,4.62
2022-11-24T04:22:54.342Z,4.60
2022-11-24T04:25:23.203Z,4.36
2022-11-24T04:27:53.909Z,4.49
2022-11-24T04:30:21.558Z,4.69
2022-11-24T04:32:48.235Z,4.58
2022-11-24T04:35:15.049Z,4.86
2022-11-24T04:37:41.639Z,5.00
2022-11-24T04:40:10.407Z,4.64
2022-11-24T04:42:39.540Z,4.60
2022-11-24T04:45:11.564Z,4.64
2022-11-24T04:47:38.391Z,4.62
2022-11-24T04:50:08.896Z,4.36
2022-11-24T04:52:37.785Z,4.81
2022-11-24T04:55:04.427Z,4.81
2022-11-24T04:57:34.037Z,4.87
2022-11-24T05:00:00.497Z,4.97
2022-11-24T05:02:26.994Z,4.97
2022-11-24T05:04:53.487Z,4.92
2022-11-24T05:07:22.370Z,4.68
2022-11-24T05:10:07.680Z,4.44
2022-11-24T05:12:34.260Z,4.57
2022-11-24T05:15:07.110Z,4.41
2022-11-24T05:17:36.198Z,4.50
2022-11-24T05:20:05.731Z,4.29
2022-11-24T05:22:32.550Z,4.45
2022-11-24T05:24:59.146Z,4.35
2022-11-24T05:27:27.971Z,4.44
2022-11-24T05:29:54.558Z,4.55
2022-11-24T05:32:23.289Z,4.40
2022-11-24T05:34:49.864Z,4.46
2022-11-24T05:37:18.841Z,4.39
2022-11-24T05:39:48.168Z,4.28
2022-11-24T05:42:35.789Z,4.44
2022-11-24T05:45:02.384Z,4.40
2022-11-24T05:47:31.190Z,4.44
2022-11-24T05:49:57.707Z,4.44
2022-11-24T05:52:28.839Z,4.63
2022-11-24T05:54:55.377Z,4.64
2022-11-24T05:57:21.935Z,4.62
2022-11-24T05:59:50.910Z,4.63
2022-11-24T06:02:19.793Z,4.69
2022-11-24T06:04:46.495Z,4.67
2022-11-24T06:07:13.604Z,4.56
2022-11-24T06:09:41.486Z,4.43
2022-11-24T06:12:10.480Z,4.56
2022-11-24T06:14:40.348Z,4.52
2022-11-24T06:17:07.659Z,4.71
2022-11-24T06:19:37.383Z,4.77
2022-11-24T06:22:06.609Z,4.86
2022-11-24T06:24:37.677Z,4.91
2022-11-24T06:27:06.769Z,5.09
2022-11-24T06:29:33.279Z,5.13
2022-11-24T06:31:59.883Z,4.88
2022-11-24T06:34:26.447Z,5.08
2022-11-24T06:36:57.500Z,5.04
2022-11-24T06:39:28.974Z,5.09
2022-11-24T06:42:02.884Z,5.22
2022-11-24T06:44:29.422Z,5.15
2022-11-24T06:47:00.572Z,5.13
2022-11-24T06:49:27.162Z,5.13
2022-11-24T06:51:54.858Z,5.09
2022-11-24T06:54:22.169Z,5.22
2022-11-24T06:56:48.749Z,5.35
2022-11-24T06:59:18.065Z,5.21
2022-11-24T07:01:44.728Z,5.31
2022-11-24T07:04:13.565Z,5.27
2022-11-24T07:06:42.720Z,5.30
2022-11-24T07:09:12.089Z,5.22
2022-11-24T07:11:59.755Z,5.30
2022-11-24T07:14:26.263Z,5.32
2022-11-24T07:16:55.116Z,5.27
2022-11-24T07:19:25.362Z,5.26
2022-11-24T07:21:54.383Z,5.34
2022-11-24T07:24:25.890Z,5.40
2022-11-24T07:26:52.391Z,5.47
2022-11-24T07:29:19.047Z,5.50
2022-11-24T07:31:48.146Z,5.33
2022-11-24T07:34:14.924Z,5.56
2022-11-24T07:36:42.762Z,5.64
2022-11-24T07:39:09.555Z,5.61
2022-11-24T07:41:38.604Z,5.60
2022-11-24T07:44:07.407Z,5.41
2022-11-24T07:46:33.902Z,5.56
2022-11-24T07:49:00.448Z,5.73
2022-11-24T07:51:26.950Z,5.73
2022-11-24T07:53:53.513Z,5.40
2022-11-24T07:56:20.040Z,5.61
2022-11-24T07:58:52.790Z,5.52
2022-11-24T08:01:20.181Z,5.53
2022-11-24T08:03:49.627Z,5.53
2022-11-24T08:06:30.023Z,5.44
2022-11-24T08:09:01.557Z,5.63
2022-11-24T08:15:15.679Z,5.82
2022-11-24T08:17:44.231Z,5.92
2022-11-24T08:20:10.828Z,6.00
2022-11-24T08:22:38.420Z,6.07
2022-11-24T08:25:11.141Z,6.02
2022-11-24T08:27:40.226Z,6.27
2022-11-24T08:30:10.045Z,6.11
2022-11-24T08:32:47.718Z,6.31
2022-11-24T08:35:16.519Z,6.01
2022-11-24T08:37:45.263Z,6.17
2022-11-24T08:40:39.857Z,6.17
2022-11-24T08:43:06.391Z,6.14
2022-11-24T08:45:44.461Z,5.99
2022-11-24T08:48:10.971Z,5.87
2022-11-24T08:50:42.829Z,5.79
2022-11-24T08:53:09.361Z,5.84
2022-11-24T08:55:40.513Z,5.79
2022-11-24T08:58:09.357Z,5.81
2022-11-24T09:00:35.952Z,5.78
2022-11-24T09:03:10.828Z,5.81
2022-11-24T09:05:51.701Z,5.99
2022-11-24T09:08:21.922Z,6.20
2022-11-24T09:10:48.473Z,6.22
2022-11-24T09:13:27.118Z,6.13
2022-11-24T09:15:56.442Z,6.06
2022-11-24T09:18:30.386Z,6.02
2022-11-24T09:21:12.727Z,5.99
2022-11-24T09:23:40.512Z,6.08
2022-11-24T09:26:31.575Z,6.10
2022-11-24T09:28:59.543Z,6.06
2022-11-24T09:31:29.842Z,5.94
2022-11-24T09:33:59.538Z,6.15
2022-11-24T09:36:26.573Z,5.98
2022-11-24T09:38:56.095Z,6.09
2022-11-24T09:41:25.314Z,5.98
2022-11-24T09:44:10.497Z,6.12
2022-11-24T09:47:14.765Z,6.23
2022-11-24T09:50:00.014Z,6.21
2022-11-24T09:53:08.824Z,6.11
2022-11-24T09:55:52.220Z,5.48
2022-11-24T09:58:24.612Z,5.63
2022-11-24T10:00:53.542Z,5.64
2022-11-24T10:03:39.159Z,5.51
2022-11-24T10:06:19.187Z,5.65
2022-11-24T10:08:51.913Z,5.53
2022-11-24T10:11:45.610Z,5.62
2022-11-24T10:18:36.158Z,5.70
2022-11-24T10:21:40.398Z,5.74
2022-11-24T10:24:22.266Z,5.76
2022-11-24T10:27:10.891Z,5.71
2022-11-24T10:29:42.662Z,5.73
2022-11-24T10:32:42.882Z,5.73
2022-11-24T10:35:26.562Z,5.86
2022-11-24T10:38:18.040Z,5.87
2022-11-24T10:41:09.360Z,5.84
2022-11-24T10:43:41.736Z,5.74
2022-11-24T10:46:19.305Z,5.77
2022-11-24T10:49:00.540Z,5.70
2022-11-24T10:51:48.576Z,5.93
2022-11-24T10:54:21.044Z,5.89
2022-11-24T10:56:50.399Z,6.03
2022-11-24T10:59:32.444Z,6.04
2022-11-24T11:01:59.989Z,5.98
2022-11-24T11:04:35.269Z,6.03
2022-11-24T11:08:11.379Z,6.12
2022-11-24T11:11:07.632Z,6.18
2022-11-24T11:13:36.516Z,6.11
2022-11-24T11:16:24.696Z,6.30
2022-11-24T11:18:53.590Z,6.17
2022-11-24T11:21:31.442Z,6.10
2022-11-24T11:24:03.817Z,6.11
2022-11-24T11:26:38.971Z,6.20
2022-11-24T11:34:56.180Z,6.28
2022-11-24T11:37:29.662Z,6.29
2022-11-24T11:39:59.918Z,6.37
2022-11-24T11:43:00.805Z,6.49
2022-11-24T11:45:35.570Z,6.54
2022-11-24T11:48:02.076Z,6.60
2022-11-24T11:51:21.237Z,6.66
2022-11-24T11:53:46.436Z,6.62
2022-11-24T11:56:25.047Z,6.63
2022-11-24T11:59:29.790Z,6.66
2022-11-24T12:02:29.653Z,6.86
2022-11-24T12:05:05.104Z,6.69
2022-11-24T12:08:17.597Z,6.77
2022-11-24T12:11:18.563Z,6.74
2022-11-24T12:13:53.507Z,6.84
2022-11-24T12:16:27.352Z,6.77
2022-11-24T12:19:07.553Z,6.81
2022-11-24T12:21:52.710Z,6.67
2022-11-24T12:24:32.322Z,6.69
2022-11-24T12:27:52.065Z,6.62
2022-11-24T12:30:22.091Z,6.58
2022-11-24T12:33:12.892Z,6.70
2022-11-24T12:35:44.242Z,6.57
2022-11-24T12:38:25.643Z,6.62
2022-11-24T12:44:22.989Z,6.65
2022-11-24T12:47:08.210Z,6.58
2022-11-24T12:49:49.987Z,6.68
2022-11-24T12:52:31.613Z,6.62
2022-11-24T12:55:04.875Z,6.57
2022-11-24T12:57:41.792Z,6.59
2022-11-24T13:00:20.318Z,6.63
2022-11-24T13:03:11.106Z,6.76
2022-11-24T13:05:59.573Z,6.68
2022-11-24T13:08:28.018Z,6.77
2022-11-24T13:10:57.124Z,6.70
2022-11-24T13:13:29.852Z,6.65
2022-11-24T13:16:20.656Z,6.71
2022-11-24T13:19:01.228Z,6.58
2022-11-24T13:21:29.811Z,6.60
2022-11-24T13:23:58.404Z,6.68
2022-11-24T13:26:51.650Z,6.45
2022-11-24T13:29:27.279Z,6.51
2022-11-24T13:31:58.302Z,6.43
2022-11-24T13:34:40.344Z,6.62
2022-11-24T13:37:26.824Z,6.42
2022-11-24T13:40:13.477Z,6.59
2022-11-24T13:43:07.620Z,6.48
2022-11-24T13:45:40.480Z,6.52
2022-11-24T13:48:22.440Z,6.55
2022-11-24T13:50:56.154Z,6.38
2022-11-24T13:53:36.984Z,6.46
2022-11-24T13:56:11.659Z,6.43
2022-11-24T13:58:38.210Z,6.46
2022-11-24T14:01:40.973Z,6.43
2022-11-24T14:04:31.871Z,6.45
2022-11-24T14:07:14.246Z,6.44
2022-11-24T14:09:46.600Z,6.32
2022-11-24T14:12:16.233Z,6.41
2022-11-24T14:14:45.519Z,6.30
2022-11-24T14:17:23.479Z,6.35
2022-11-24T14:19:52.849Z,6.55
2022-11-24T14:22:26.606Z,6.39
2022-11-24T14:24:59.852Z,6.36
2022-11-24T14:27:30.639Z,6.42
2022-11-24T14:30:04.019Z,6.45
2022-11-24T14:32:35.583Z,6.64
2022-11-24T14:35:02.165Z,6.59
2022-11-24T14:37:28.717Z,6.69
2022-11-24T14:39:57.568Z,6.56
2022-11-24T14:42:27.227Z,6.65
2022-11-24T14:44:56.794Z,6.36
2022-11-24T14:47:31.418Z,6.57
2022-11-24T14:50:08.278Z,6.40
2022-11-24T14:52:35.314Z,6.61
2022-11-24T14:55:21.525Z,6.60
2022-11-24T14:57:52.889Z,6.52
2022-11-24T15:00:27.413Z,6.46
2022-11-24T15:03:20.209Z,6.68
2022-11-24T15:05:57.209Z,6.35
2022-11-24T15:08:31.047Z,6.39
2022-11-24T15:11:00.398Z,6.32
2022-11-24T15:13:33.674Z,6.38
2022-11-24T15:16:03.981Z,6.38
2022-11-24T15:18:36.735Z,6.28
2022-11-24T15:21:04.070Z,6.30
2022-11-24T15:23:35.186Z,6.16
2022-11-24T15:26:03.947Z,6.27
2022-11-24T15:28:34.276Z,6.16
2022-11-24T15:31:05.728Z,6.12
2022-11-24T15:33:32.683Z,6.18
2022-11-24T15:36:01.708Z,6.27
2022-11-24T15:38:31.322Z,6.20
2022-11-24T15:41:17.583Z,6.01
2022-11-24T15:43:44.084Z,5.75
2022-11-24T15:46:13.056Z,6.01
2022-11-24T15:48:39.787Z,5.99
2022-11-24T15:51:11.399Z,5.90
2022-11-24T15:53:40.662Z,5.72
2022-11-24T15:56:11.412Z,5.66
2022-11-24T15:58:37.907Z,5.85
2022-11-24T16:01:04.433Z,5.82
2022-11-24T16:03:48.352Z,5.78
2022-11-24T16:06:24.763Z,5.71
2022-11-24T16:08:52.386Z,5.88
2022-11-24T16:11:21.776Z,5.87
2022-11-24T16:13:52.324Z,5.69
2022-11-24T16:16:21.225Z,5.72
2022-11-24T16:18:47.797Z,5.56
2022-11-24T16:21:19.307Z,5.66
2022-11-24T16:23:48.796Z,5.62
2022-11-24T16:26:15.376Z,5.56
2022-11-24T16:28:42.814Z,5.66
2022-11-24T16:31:16.454Z,5.58
2022-11-24T16:33:44.920Z,5.57
2022-11-24T16:36:11.689Z,5.45
2022-11-24T16:38:40.594Z,5.49
2022-11-24T16:41:07.413Z,5.44
2022-11-24T16:43:36.204Z,5.34
2022-11-24T16:46:20.389Z,5.40
2022-11-24T16:48:49.645Z,5.41
2022-11-24T16:51:19.773Z,5.31
2022-11-24T16:53:56.175Z,5.35
2022-11-24T16:56:24.965Z,5.38
2022-11-24T16:58:53.868Z,5.28
2022-11-24T17:01:20.908Z,5.34
2022-11-24T17:03:47.958Z,5.24
2022-11-24T17:06:16.204Z,5.37
2022-11-24T17:08:44.337Z,5.27
2022-11-24T17:11:16.006Z,5.26
2022-11-24T17:13:43.352Z,5.31
2022-11-24T17:16:12.665Z,5.22
2022-11-24T17:18:39.918Z,5.23
2022-11-24T17:21:10.175Z,5.17
2022-11-24T17:23:39.427Z,5.27
2022-11-24T17:26:08.833Z,5.25
2022-11-24T17:28:37.891Z,5.23
2022-11-24T17:31:28.970Z,5.24
2022-11-24T17:33:57.398Z,5.27
2022-11-24T17:36:26.435Z,5.35
2022-11-24T17:38:53.534Z,5.30
2022-11-24T17:41:21.429Z,5.29
2022-11-24T17:43:55.777Z,5.23
2022-11-24T17:46:26.007Z,5.27
2022-11-24T17:48:54.871Z,5.15
2022-11-24T17:51:23.380Z,5.30
2022-11-24T17:53:54.003Z,5.20
2022-11-24T17:56:27.845Z,5.09
2022-11-24T17:59:02.548Z,5.16
2022-11-24T18:01:30.226Z,5.06
2022-11-24T18:03:57.419Z,5.09
2022-11-24T18:06:25.556Z,5.06
2022-11-24T18:08:55.990Z,5.09
2022-11-24T18:11:32.018Z,4.97
2022-11-24T18:14:02.039Z,5.03
2022-11-24T18:16:31.028Z,5.17
2022-11-24T18:19:14.605Z,5.13
2022-11-24T18:21:45.220Z,5.00
2022-11-24T18:24:18.606Z,5.03
2022-11-24T18:26:50.202Z,5.08
2022-11-24T18:29:18.956Z,5.01
2022-11-24T18:31:47.760Z,4.97
2022-11-24T18:34:16.748Z,5.13
2022-11-24T18:36:47.467Z,5.16
2022-11-24T18:39:17.893Z,5.09
2022-11-24T18:41:47.404Z,4.97
2022-11-24T18:44:16.246Z,5.02
2022-11-24T18:46:42.789Z,5.13
2022-11-24T18:49:11.383Z,5.15
2022-11-24T18:51:37.850Z,5.11
2022-11-24T18:54:05.471Z,5.08
2022-11-24T18:56:34.753Z,5.17
2022-11-24T18:59:01.283Z,5.02
2022-11-24T19:01:28.973Z,4.91
2022-11-24T19:03:57.730Z,5.04
2022-11-24T19:06:32.382Z,4.90
2022-11-24T19:09:01.708Z,4.87
2022-11-24T19:11:32.607Z,4.81
2022-11-24T19:14:00.416Z,4.95
2022-11-24T19:16:26.975Z,4.96
2022-11-24T19:18:57.308Z,4.95
2022-11-24T19:21:26.553Z,4.93
2022-11-24T19:23:53.391Z,4.99
2022-11-24T19:26:22.395Z,4.84
2022-11-24T19:28:49.161Z,4.77
2022-11-24T19:31:19.293Z,4.91
2022-11-24T19:33:49.407Z,4.79
2022-11-24T19:36:19.008Z,4.72
2022-11-24T19:38:53.426Z,4.76
2022-11-24T19:41:22.070Z,4.66
2022-11-24T19:43:53.414Z,4.72
2022-11-24T19:46:27.449Z,4.62
2022-11-24T19:48:56.896Z,4.65
2022-11-24T19:51:25.858Z,4.81
2022-11-24T19:53:53.598Z,4.80
2022-11-24T19:56:26.427Z,4.86
2022-11-24T19:58:55.826Z,4.75
2022-11-24T20:01:26.844Z,4.81
2022-11-24T20:03:57.028Z,4.81
2022-11-24T20:06:23.549Z,4.85
2022-11-24T20:08:50.079Z,4.97
2022-11-24T20:11:19.496Z,4.96
2022-11-24T20:13:49.837Z,4.99
2022-11-24T20:16:19.401Z,5.00
2022-11-24T20:18:47.708Z,5.04
2022-11-24T20:21:22.198Z,5.01
2022-11-24T20:23:59.668Z,5.05
2022-11-24T20:26:28.237Z,4.89
2022-11-24T20:28:56.488Z,4.94
2022-11-24T20:31:28.842Z,4.86
2022-11-24T20:34:01.122Z,4.85
2022-11-24T20:36:31.978Z,4.86
2022-11-24T20:39:02.766Z,4.95
2022-11-24T20:41:32.629Z,4.85
2022-11-24T20:44:05.042Z,4.96
2022-11-24T20:46:35.911Z,4.97
2022-11-24T20:49:05.884Z,4.98
2022-11-24T20:51:37.189Z,4.99
2022-11-24T20:54:07.735Z,5.04
2022-11-24T20:56:36.831Z,5.00
2022-11-24T20:59:06.342Z,5.02
2022-11-24T21:01:43.112Z,5.01
2022-11-24T21:04:13.466Z,5.17
2022-11-24T21:06:42.653Z,5.12
2022-11-24T21:09:14.692Z,5.21
2022-11-24T21:11:44.286Z,5.13
2022-11-24T21:14:11.514Z,5.13
2022-11-24T21:16:40.394Z,5.27
2022-11-24T21:19:12.698Z,5.16
2022-11-24T21:21:43.518Z,5.26
2022-11-24T21:24:17.616Z,5.17
2022-11-24T21:26:47.898Z,5.27
2022-11-24T21:29:17.205Z,5.08
2022-11-24T21:31:46.166Z,5.08
2022-11-24T21:34:15.626Z,5.10
2022-11-24T21:36:45.053Z,5.03
2022-11-24T21:39:16.360Z,5.09
2022-11-24T21:41:45.782Z,5.09
2022-11-24T21:44:15.228Z,5.07
2022-11-24T21:46:49.534Z,5.24
2022-11-24T21:49:22.436Z,5.26
2022-11-24T21:51:55.369Z,5.16
2022-11-24T21:54:22.529Z,5.27
2022-11-24T21:56:51.296Z,5.23
2022-11-24T21:59:22.846Z,5.06
2022-11-24T22:01:49.634Z,5.06
2022-11-24T22:04:19.975Z,5.23
2022-11-24T22:06:46.478Z,5.16
2022-11-24T22:09:17.769Z,5.24
2022-11-24T22:11:49.697Z,5.38
2022-11-24T22:14:18.848Z,5.47
2022-11-24T22:16:45.677Z,5.32
2022-11-24T22:19:14.736Z,5.21
2022-11-24T22:21:41.295Z,5.21
2022-11-24T22:24:10.663Z,5.10
2022-11-24T22:26:37.506Z,5.17
2022-11-24T22:29:08.571Z,5.17
2022-11-24T22:31:35.240Z,5.08
2022-11-24T22:34:01.857Z,5.12
2022-11-24T22:36:30.077Z,5.08
2022-11-24T22:39:04.161Z,5.04
2022-11-24T22:41:35.226Z,5.05
2022-11-24T22:44:01.834Z,5.08
2022-11-24T22:46:32.488Z,5.00
2022-11-24T22:49:00.658Z,5.15
2022-11-24T22:51:30.019Z,5.15
2022-11-24T22:53:59.346Z,5.03
2022-11-24T22:56:35.371Z,4.97
2022-11-24T22:59:06.816Z,4.82
2022-11-24T23:01:34.189Z,4.84
2022-11-24T23:04:04.301Z,4.65
2022-11-24T23:06:32.821Z,4.70
2022-11-24T23:09:04.112Z,4.67
2022-11-24T23:11:38.976Z,4.80
2022-11-24T23:14:16.510Z,4.83
2022-11-24T23:16:44.091Z,4.88
2022-11-24T23:19:13.410Z,4.86
2022-11-24T23:21:42.162Z,4.72
2022-11-24T23:24:12.260Z,4.48
2022-11-24T23:26:43.527Z,4.53
2022-11-24T23:29:10.744Z,4.42
2022-11-24T23:31:40.173Z,4.51
2022-11-24T23:34:09.621Z,4.04
2022-11-24T23:36:39.148Z,4.14
2022-11-24T23:39:08.806Z,3.85
2022-11-24T23:41:35.505Z,3.86
2022-11-24T23:44:02.334Z,3.69
2022-11-24T23:46:29.183Z,3.78
2022-11-24T23:48:58.518Z,3.66
2022-11-24T23:51:25.101Z,3.83
2022-11-24T23:53:52.252Z,3.70
2022-11-24T23:56:25.616Z,3.59
2022-11-24T23:58:54.452Z,3.46
